sensor_id;sensor_type;location;lat;lon;timestamp;P1;durP1;ratioP1;P2;durP2;ratioP2
60700;SDS011;46541;49.894;10.886;2022-09-29T00:02:07;8.65;;;3.45;;
60700;SDS011;46541;49.894;10.886;2022-09-29T00:04:34;6.82;;;3.70;;
60700;SDS011;46541;49.894;10.886;2022-09-29T00:07:01;6.80;;;3.75;;
60700;SDS011;46541;49.894;10.886;2022-09-29T00:09:28;9.38;;;3.92;;
60700;SDS011;46541;49.894;10.886;2022-09-29T00:11:55;10.60;;;3.83;;
60700;SDS011;46541;49.894;10.886;2022-09-29T00:14:22;7.47;;;3.90;;
60700;SDS011;46541;49.894;10.886;2022-09-29T00:16:48;9.75;;;3.97;;
60700;SDS011;46541;49.894;10.886;2022-09-29T00:19:15;10.95;;;3.85;;
60700;SDS011;46541;49.894;10.886;2022-09-29T00:21:42;10.27;;;4.28;;
60700;SDS011;46541;49.894;10.886;2022-09-29T00:24:09;8.98;;;3.55;;
60700;SDS011;46541;49.894;10.886;2022-09-29T00:26:36;6.63;;;3.53;;
60700;SDS011;46541;49.894;10.886;2022-09-29T00:29:03;6.72;;;3.33;;
60700;SDS011;46541;49.894;10.886;2022-09-29T00:31:30;6.32;;;3.17;;
60700;SDS011;46541;49.894;10.886;2022-09-29T00:33:58;11.50;;;3.50;;
60700;SDS011;46541;49.894;10.886;2022-09-29T00:36:25;7.72;;;3.50;;
60700;SDS011;46541;49.894;10.886;2022-09-29T00:38:56;6.88;;;3.72;;
60700;SDS011;46541;49.894;10.886;2022-09-29T00:41:28;7.07;;;3.60;;
60700;SDS011;46541;49.894;10.886;2022-09-29T00:44:06;8.77;;;3.85;;
60700;SDS011;46541;49.894;10.886;2022-09-29T00:46:44;8.98;;;3.75;;
60700;SDS011;46541;49.894;10.886;2022-09-29T00:52:13;10.15;;;3.70;;
60700;SDS011;46541;49.894;10.886;2022-09-29T00:54:47;8.93;;;3.85;;
60700;SDS011;46541;49.894;10.886;2022-09-29T00:57:17;4.63;;;3.35;;
60700;SDS011;46541;49.894;10.886;2022-09-29T00:59:51;7.38;;;3.28;;
60700;SDS011;46541;49.894;10.886;2022-09-29T01:02:22;10.40;;;3.50;;
60700;SDS011;46541;49.894;10.886;2022-09-29T01:04:49;8.27;;;3.63;;
60700;SDS011;46541;49.894;10.886;2022-09-29T01:07:19;7.57;;;4.18;;
60700;SDS011;46541;49.894;10.886;2022-09-29T01:09:48;10.52;;;3.88;;
60700;SDS011;46541;49.894;10.886;2022-09-29T01:12:17;5.32;;;3.55;;
60700;SDS011;46541;49.894;10.886;2022-09-29T01:14:44;8.80;;;3.67;;
60700;SDS011;46541;49.894;10.886;2022-09-29T01:17:12;9.27;;;3.90;;
60700;SDS011;46541;49.894;10.886;2022-09-29T01:39:18;6.55;;;3.85;;
60700;SDS011;46541;49.894;10.886;2022-09-29T01:42:06;6.90;;;4.43;;
60700;SDS011;46541;49.894;10.886;2022-09-29T01:47:26;7.07;;;3.58;;
60700;SDS011;46541;49.894;10.886;2022-09-29T01:50:12;8.30;;;3.83;;
60700;SDS011;46541;49.894;10.886;2022-09-29T01:52:50;9.27;;;3.85;;
60700;SDS011;46541;49.894;10.886;2022-09-29T01:55:22;11.13;;;3.78;;
60700;SDS011;46541;49.894;10.886;2022-09-29T01:57:58;10.55;;;3.92;;
60700;SDS011;46541;49.894;10.886;2022-09-29T02:00:28;9.35;;;3.90;;
60700;SDS011;46541;49.894;10.886;2022-09-29T02:02:59;9.95;;;3.90;;
60700;SDS011;46541;49.894;10.886;2022-09-29T02:05:39;8.52;;;4.65;;
60700;SDS011;46541;49.894;10.886;2022-09-29T02:10:50;6.20;;;3.70;;
60700;SDS011;46541;49.894;10.886;2022-09-29T02:13:24;9.88;;;3.95;;
60700;SDS011;46541;49.894;10.886;2022-09-29T02:15:52;7.97;;;3.72;;
60700;SDS011;46541;49.894;10.886;2022-09-29T02:18:23;8.57;;;3.92;;
60700;SDS011;46541;49.894;10.886;2022-09-29T02:20:54;6.93;;;3.78;;
60700;SDS011;46541;49.894;10.886;2022-09-29T02:23:21;8.70;;;4.10;;
60700;SDS011;46541;49.894;10.886;2022-09-29T02:25:48;7.88;;;3.90;;
60700;SDS011;46541;49.894;10.886;2022-09-29T02:28:17;9.80;;;3.58;;
60700;SDS011;46541;49.894;10.886;2022-09-29T02:30:44;11.63;;;4.57;;
60700;SDS011;46541;49.894;10.886;2022-09-29T02:33:21;9.75;;;4.20;;
60700;SDS011;46541;49.894;10.886;2022-09-29T02:39:03;7.90;;;4.60;;
60700;SDS011;46541;49.894;10.886;2022-09-29T02:50:15;12.57;;;4.80;;
60700;SDS011;46541;49.894;10.886;2022-09-29T02:56:06;8.18;;;4.53;;
60700;SDS011;46541;49.894;10.886;2022-09-29T03:01:46;9.65;;;4.40;;
60700;SDS011;46541;49.894;10.886;2022-09-29T03:04:16;8.43;;;4.65;;
60700;SDS011;46541;49.894;10.886;2022-09-29T03:06:44;10.10;;;5.13;;
60700;SDS011;46541;49.894;10.886;2022-09-29T03:09:11;11.75;;;5.80;;
60700;SDS011;46541;49.894;10.886;2022-09-29T03:11:38;7.43;;;4.80;;
60700;SDS011;46541;49.894;10.886;2022-09-29T03:14:05;9.18;;;4.18;;
60700;SDS011;46541;49.894;10.886;2022-09-29T03:16:32;8.18;;;4.00;;
60700;SDS011;46541;49.894;10.886;2022-09-29T03:19:00;9.00;;;4.70;;
60700;SDS011;46541;49.894;10.886;2022-09-29T03:21:27;7.93;;;5.55;;
60700;SDS011;46541;49.894;10.886;2022-09-29T03:23:54;9.30;;;4.65;;
60700;SDS011;46541;49.894;10.886;2022-09-29T03:26:23;6.63;;;4.65;;
60700;SDS011;46541;49.894;10.886;2022-09-29T03:28:50;9.05;;;5.25;;
60700;SDS011;46541;49.894;10.886;2022-09-29T03:31:17;7.65;;;4.93;;
60700;SDS011;46541;49.894;10.886;2022-09-29T03:33:44;6.50;;;4.78;;
60700;SDS011;46541;49.894;10.886;2022-09-29T03:36:11;8.57;;;4.60;;
60700;SDS011;46541;49.894;10.886;2022-09-29T03:38:38;9.70;;;4.45;;
60700;SDS011;46541;49.894;10.886;2022-09-29T03:41:05;8.50;;;4.60;;
60700;SDS011;46541;49.894;10.886;2022-09-29T03:43:32;10.57;;;5.40;;
60700;SDS011;46541;49.894;10.886;2022-09-29T03:45:59;6.43;;;4.03;;
60700;SDS011;46541;49.894;10.886;2022-09-29T03:48:26;6.82;;;4.43;;
60700;SDS011;46541;49.894;10.886;2022-09-29T03:50:56;7.35;;;4.40;;
60700;SDS011;46541;49.894;10.886;2022-09-29T03:53:23;7.75;;;4.82;;
60700;SDS011;46541;49.894;10.886;2022-09-29T03:55:50;7.13;;;4.45;;
60700;SDS011;46541;49.894;10.886;2022-09-29T03:58:17;8.20;;;5.10;;
60700;SDS011;46541;49.894;10.886;2022-09-29T04:00:46;6.35;;;4.80;;
60700;SDS011;46541;49.894;10.886;2022-09-29T04:03:14;10.98;;;4.97;;
60700;SDS011;46541;49.894;10.886;2022-09-29T04:05:43;9.50;;;4.90;;
60700;SDS011;46541;49.894;10.886;2022-09-29T04:08:10;9.50;;;5.03;;
60700;SDS011;46541;49.894;10.886;2022-09-29T04:10:38;8.18;;;4.60;;
60700;SDS011;46541;49.894;10.886;2022-09-29T04:13:05;7.55;;;5.28;;
60700;SDS011;46541;49.894;10.886;2022-09-29T04:15:32;8.85;;;4.55;;
60700;SDS011;46541;49.894;10.886;2022-09-29T04:17:59;9.15;;;5.18;;
60700;SDS011;46541;49.894;10.886;2022-09-29T04:20:26;4.93;;;4.30;;
60700;SDS011;46541;49.894;10.886;2022-09-29T04:22:53;9.50;;;4.95;;
60700;SDS011;46541;49.894;10.886;2022-09-29T04:25:20;17.77;;;7.00;;
60700;SDS011;46541;49.894;10.886;2022-09-29T04:27:46;13.10;;;5.43;;
60700;SDS011;46541;49.894;10.886;2022-09-29T04:30:13;11.80;;;6.50;;
60700;SDS011;46541;49.894;10.886;2022-09-29T04:32:41;8.52;;;5.05;;
60700;SDS011;46541;49.894;10.886;2022-09-29T04:35:08;6.75;;;4.93;;
60700;SDS011;46541;49.894;10.886;2022-09-29T04:37:35;8.13;;;4.85;;
60700;SDS011;46541;49.894;10.886;2022-09-29T04:40:02;13.25;;;5.05;;
60700;SDS011;46541;49.894;10.886;2022-09-29T04:42:30;7.38;;;4.82;;
60700;SDS011;46541;49.894;10.886;2022-09-29T04:44:57;12.52;;;5.57;;
60700;SDS011;46541;49.894;10.886;2022-09-29T04:47:23;12.10;;;6.28;;
60700;SDS011;46541;49.894;10.886;2022-09-29T04:49:50;8.70;;;4.45;;
60700;SDS011;46541;49.894;10.886;2022-09-29T04:52:17;13.52;;;5.97;;
60700;SDS011;46541;49.894;10.886;2022-09-29T04:54:43;8.15;;;4.63;;
60700;SDS011;46541;49.894;10.886;2022-09-29T04:57:10;11.93;;;6.30;;
60700;SDS011;46541;49.894;10.886;2022-09-29T04:59:37;17.52;;;7.45;;
60700;SDS011;46541;49.894;10.886;2022-09-29T05:02:04;11.95;;;5.60;;
60700;SDS011;46541;49.894;10.886;2022-09-29T05:04:31;12.50;;;7.72;;
60700;SDS011;46541;49.894;10.886;2022-09-29T05:06:58;13.10;;;5.95;;
60700;SDS011;46541;49.894;10.886;2022-09-29T05:09:24;10.00;;;5.20;;
60700;SDS011;46541;49.894;10.886;2022-09-29T05:11:57;9.95;;;4.95;;
60700;SDS011;46541;49.894;10.886;2022-09-29T05:14:24;12.48;;;5.70;;
60700;SDS011;46541;49.894;10.886;2022-09-29T05:16:52;12.85;;;5.28;;
60700;SDS011;46541;49.894;10.886;2022-09-29T05:19:20;12.63;;;5.57;;
60700;SDS011;46541;49.894;10.886;2022-09-29T05:21:46;13.20;;;6.10;;
60700;SDS011;46541;49.894;10.886;2022-09-29T05:24:13;11.77;;;7.40;;
60700;SDS011;46541;49.894;10.886;2022-09-29T05:26:40;7.30;;;5.30;;
60700;SDS011;46541;49.894;10.886;2022-09-29T05:29:07;10.60;;;5.82;;
60700;SDS011;46541;49.894;10.886;2022-09-29T05:31:33;8.93;;;5.50;;
60700;SDS011;46541;49.894;10.886;2022-09-29T05:34:00;10.20;;;6.22;;
60700;SDS011;46541;49.894;10.886;2022-09-29T05:36:27;11.05;;;6.07;;
60700;SDS011;46541;49.894;10.886;2022-09-29T05:38:54;9.30;;;5.30;;
60700;SDS011;46541;49.894;10.886;2022-09-29T05:41:21;17.75;;;9.48;;
60700;SDS011;46541;49.894;10.886;2022-09-29T05:43:48;11.60;;;6.10;;
60700;SDS011;46541;49.894;10.886;2022-09-29T05:46:16;11.88;;;5.97;;
60700;SDS011;46541;49.894;10.886;2022-09-29T05:48:47;9.00;;;4.68;;
60700;SDS011;46541;49.894;10.886;2022-09-29T05:51:16;15.18;;;8.07;;
60700;SDS011;46541;49.894;10.886;2022-09-29T05:53:48;13.60;;;7.65;;
60700;SDS011;46541;49.894;10.886;2022-09-29T05:56:16;13.32;;;5.97;;
60700;SDS011;46541;49.894;10.886;2022-09-29T05:58:45;13.30;;;7.63;;
60700;SDS011;46541;49.894;10.886;2022-09-29T06:01:18;15.32;;;6.82;;
60700;SDS011;46541;49.894;10.886;2022-09-29T06:03:47;9.27;;;5.60;;
60700;SDS011;46541;49.894;10.886;2022-09-29T06:06:17;7.57;;;5.55;;
60700;SDS011;46541;49.894;10.886;2022-09-29T06:08:46;9.77;;;5.93;;
60700;SDS011;46541;49.894;10.886;2022-09-29T06:11:14;12.00;;;5.85;;
60700;SDS011;46541;49.894;10.886;2022-09-29T06:13:44;7.93;;;5.63;;
60700;SDS011;46541;49.894;10.886;2022-09-29T06:16:13;12.60;;;6.80;;
60700;SDS011;46541;49.894;10.886;2022-09-29T06:18:41;10.65;;;6.88;;
60700;SDS011;46541;49.894;10.886;2022-09-29T06:21:12;9.45;;;5.95;;
60700;SDS011;46541;49.894;10.886;2022-09-29T06:23:40;11.18;;;6.35;;
60700;SDS011;46541;49.894;10.886;2022-09-29T06:26:08;9.45;;;5.97;;
60700;SDS011;46541;49.894;10.886;2022-09-29T06:28:36;10.02;;;5.95;;
60700;SDS011;46541;49.894;10.886;2022-09-29T06:31:04;11.88;;;6.65;;
60700;SDS011;46541;49.894;10.886;2022-09-29T06:33:38;10.40;;;6.60;;
60700;SDS011;46541;49.894;10.886;2022-09-29T06:36:07;15.10;;;8.88;;
60700;SDS011;46541;49.894;10.886;2022-09-29T06:38:59;23.35;;;13.80;;
60700;SDS011;46541;49.894;10.886;2022-09-29T06:41:26;18.23;;;9.27;;
60700;SDS011;46541;49.894;10.886;2022-09-29T06:43:55;20.92;;;9.85;;
60700;SDS011;46541;49.894;10.886;2022-09-29T06:46:22;11.82;;;6.97;;
60700;SDS011;46541;49.894;10.886;2022-09-29T06:48:55;10.57;;;5.82;;
60700;SDS011;46541;49.894;10.886;2022-09-29T06:51:22;13.48;;;6.85;;
60700;SDS011;46541;49.894;10.886;2022-09-29T06:54:05;12.02;;;5.88;;
60700;SDS011;46541;49.894;10.886;2022-09-29T06:56:37;12.05;;;6.38;;
60700;SDS011;46541;49.894;10.886;2022-09-29T06:59:05;14.90;;;7.45;;
60700;SDS011;46541;49.894;10.886;2022-09-29T07:01:32;13.73;;;7.03;;
60700;SDS011;46541;49.894;10.886;2022-09-29T07:03:59;13.68;;;7.20;;
60700;SDS011;46541;49.894;10.886;2022-09-29T07:06:27;10.95;;;5.43;;
60700;SDS011;46541;49.894;10.886;2022-09-29T07:08:55;10.68;;;5.85;;
60700;SDS011;46541;49.894;10.886;2022-09-29T07:11:23;7.88;;;5.68;;
60700;SDS011;46541;49.894;10.886;2022-09-29T07:13:51;10.43;;;6.07;;
60700;SDS011;46541;49.894;10.886;2022-09-29T07:16:20;8.70;;;5.75;;
60700;SDS011;46541;49.894;10.886;2022-09-29T07:18:49;9.00;;;5.40;;
60700;SDS011;46541;49.894;10.886;2022-09-29T07:21:16;7.97;;;5.38;;
60700;SDS011;46541;49.894;10.886;2022-09-29T07:23:44;8.43;;;5.20;;
60700;SDS011;46541;49.894;10.886;2022-09-29T07:26:12;11.90;;;5.97;;
60700;SDS011;46541;49.894;10.886;2022-09-29T07:28:41;8.82;;;5.22;;
60700;SDS011;46541;49.894;10.886;2022-09-29T07:31:10;8.13;;;5.28;;
60700;SDS011;46541;49.894;10.886;2022-09-29T07:33:41;8.57;;;5.55;;
60700;SDS011;46541;49.894;10.886;2022-09-29T07:36:08;8.50;;;5.35;;
60700;SDS011;46541;49.894;10.886;2022-09-29T07:38:35;7.82;;;5.25;;
60700;SDS011;46541;49.894;10.886;2022-09-29T07:41:03;8.25;;;5.10;;
60700;SDS011;46541;49.894;10.886;2022-09-29T07:43:31;6.95;;;4.72;;
60700;SDS011;46541;49.894;10.886;2022-09-29T07:45:58;9.50;;;5.63;;
60700;SDS011;46541;49.894;10.886;2022-09-29T07:48:28;9.07;;;5.20;;
60700;SDS011;46541;49.894;10.886;2022-09-29T07:51:07;15.60;;;6.50;;
60700;SDS011;46541;49.894;10.886;2022-09-29T07:53:37;9.75;;;5.75;;
60700;SDS011;46541;49.894;10.886;2022-09-29T07:56:05;7.13;;;4.93;;
60700;SDS011;46541;49.894;10.886;2022-09-29T07:58:35;8.57;;;5.28;;
60700;SDS011;46541;49.894;10.886;2022-09-29T08:01:04;7.82;;;4.78;;
60700;SDS011;46541;49.894;10.886;2022-09-29T08:03:36;9.23;;;5.38;;
60700;SDS011;46541;49.894;10.886;2022-09-29T08:06:04;8.48;;;5.93;;
60700;SDS011;46541;49.894;10.886;2022-09-29T08:08:36;9.25;;;5.15;;
60700;SDS011;46541;49.894;10.886;2022-09-29T08:11:04;10.23;;;5.22;;
60700;SDS011;46541;49.894;10.886;2022-09-29T08:13:45;8.93;;;5.57;;
60700;SDS011;46541;49.894;10.886;2022-09-29T08:16:13;7.70;;;4.57;;
60700;SDS011;46541;49.894;10.886;2022-09-29T08:18:40;11.75;;;5.75;;
60700;SDS011;46541;49.894;10.886;2022-09-29T08:21:09;10.68;;;6.13;;
60700;SDS011;46541;49.894;10.886;2022-09-29T08:23:38;10.02;;;5.95;;
60700;SDS011;46541;49.894;10.886;2022-09-29T08:26:16;10.52;;;5.70;;
60700;SDS011;46541;49.894;10.886;2022-09-29T08:28:55;10.77;;;6.05;;
60700;SDS011;46541;49.894;10.886;2022-09-29T08:31:33;11.20;;;5.43;;
60700;SDS011;46541;49.894;10.886;2022-09-29T08:34:00;8.00;;;6.07;;
60700;SDS011;46541;49.894;10.886;2022-09-29T08:36:27;12.43;;;5.80;;
60700;SDS011;46541;49.894;10.886;2022-09-29T08:38:55;8.48;;;5.63;;
60700;SDS011;46541;49.894;10.886;2022-09-29T08:41:33;7.53;;;4.75;;
60700;SDS011;46541;49.894;10.886;2022-09-29T08:49:47;9.25;;;5.05;;
60700;SDS011;46541;49.894;10.886;2022-09-29T08:52:19;7.60;;;5.07;;
60700;SDS011;46541;49.894;10.886;2022-09-29T08:54:54;9.18;;;5.38;;
60700;SDS011;46541;49.894;10.886;2022-09-29T08:57:47;7.68;;;5.05;;
60700;SDS011;46541;49.894;10.886;2022-09-29T09:00:20;7.10;;;5.57;;
60700;SDS011;46541;49.894;10.886;2022-09-29T09:03:03;8.50;;;5.05;;
60700;SDS011;46541;49.894;10.886;2022-09-29T09:17:03;9.05;;;5.53;;
60700;SDS011;46541;49.894;10.886;2022-09-29T09:19:30;7.28;;;4.10;;
60700;SDS011;46541;49.894;10.886;2022-09-29T09:22:23;15.30;;;5.10;;
60700;SDS011;46541;49.894;10.886;2022-09-29T09:24:58;11.15;;;4.35;;
60700;SDS011;46541;49.894;10.886;2022-09-29T09:27:47;8.27;;;4.10;;
60700;SDS011;46541;49.894;10.886;2022-09-29T09:30:21;5.15;;;3.42;;
60700;SDS011;46541;49.894;10.886;2022-09-29T09:32:53;7.57;;;4.30;;
60700;SDS011;46541;49.894;10.886;2022-09-29T09:35:32;7.03;;;3.70;;
60700;SDS011;46541;49.894;10.886;2022-09-29T09:38:21;9.57;;;4.38;;
60700;SDS011;46541;49.894;10.886;2022-09-29T09:40:54;4.55;;;3.38;;
60700;SDS011;46541;49.894;10.886;2022-09-29T09:43:27;7.22;;;3.97;;
60700;SDS011;46541;49.894;10.886;2022-09-29T09:48:46;11.93;;;3.75;;
60700;SDS011;46541;49.894;10.886;2022-09-29T09:54:12;9.20;;;4.05;;
60700;SDS011;46541;49.894;10.886;2022-09-29T09:56:56;6.75;;;3.75;;
60700;SDS011;46541;49.894;10.886;2022-09-29T10:00:03;4.85;;;3.65;;
60700;SDS011;46541;49.894;10.886;2022-09-29T10:02:49;9.07;;;5.13;;
60700;SDS011;46541;49.894;10.886;2022-09-29T10:05:19;5.22;;;4.22;;
60700;SDS011;46541;49.894;10.886;2022-09-29T10:07:49;4.97;;;3.03;;
60700;SDS011;46541;49.894;10.886;2022-09-29T10:10:27;7.18;;;3.05;;
60700;SDS011;46541;49.894;10.886;2022-09-29T10:13:03;8.85;;;4.10;;
60700;SDS011;46541;49.894;10.886;2022-09-29T10:15:42;8.60;;;4.43;;
60700;SDS011;46541;49.894;10.886;2022-09-29T10:18:17;7.88;;;3.78;;
60700;SDS011;46541;49.894;10.886;2022-09-29T10:20:54;6.32;;;4.05;;
60700;SDS011;46541;49.894;10.886;2022-09-29T10:23:31;7.38;;;3.92;;
60700;SDS011;46541;49.894;10.886;2022-09-29T10:26:03;6.95;;;3.92;;
60700;SDS011;46541;49.894;10.886;2022-09-29T10:29:01;6.60;;;3.10;;
60700;SDS011;46541;49.894;10.886;2022-09-29T10:31:28;6.30;;;3.22;;
60700;SDS011;46541;49.894;10.886;2022-09-29T10:36:51;7.00;;;2.78;;
60700;SDS011;46541;49.894;10.886;2022-09-29T10:39:40;7.63;;;2.78;;
60700;SDS011;46541;49.894;10.886;2022-09-29T10:42:25;5.32;;;2.72;;
60700;SDS011;46541;49.894;10.886;2022-09-29T10:45:12;5.05;;;2.83;;
60700;SDS011;46541;49.894;10.886;2022-09-29T10:50:24;3.83;;;2.33;;
60700;SDS011;46541;49.894;10.886;2022-09-29T10:53:14;6.72;;;2.75;;
60700;SDS011;46541;49.894;10.886;2022-09-29T10:55:50;7.00;;;2.40;;
60700;SDS011;46541;49.894;10.886;2022-09-29T10:58:33;14.32;;;6.70;;
60700;SDS011;46541;49.894;10.886;2022-09-29T11:01:22;7.90;;;3.33;;
60700;SDS011;46541;49.894;10.886;2022-09-29T11:06:33;8.18;;;2.63;;
60700;SDS011;46541;49.894;10.886;2022-09-29T11:09:27;4.15;;;1.80;;
60700;SDS011;46541;49.894;10.886;2022-09-29T11:11:55;6.70;;;3.00;;
60700;SDS011;46541;49.894;10.886;2022-09-29T11:17:17;5.03;;;1.88;;
60700;SDS011;46541;49.894;10.886;2022-09-29T11:19:49;3.90;;;1.65;;
60700;SDS011;46541;49.894;10.886;2022-09-29T11:27:54;7.45;;;2.83;;
60700;SDS011;46541;49.894;10.886;2022-09-29T11:30:25;6.75;;;2.17;;
60700;SDS011;46541;49.894;10.886;2022-09-29T11:36:08;3.67;;;1.70;;
60700;SDS011;46541;49.894;10.886;2022-09-29T11:41:57;2.67;;;1.40;;
60700;SDS011;46541;49.894;10.886;2022-09-29T11:45:07;2.88;;;1.63;;
60700;SDS011;46541;49.894;10.886;2022-09-29T12:14:59;6.32;;;1.90;;
60700;SDS011;46541;49.894;10.886;2022-09-29T12:17:29;4.05;;;1.90;;
60700;SDS011;46541;49.894;10.886;2022-09-29T12:20:02;3.67;;;2.22;;
60700;SDS011;46541;49.894;10.886;2022-09-29T12:22:44;8.48;;;3.70;;
60700;SDS011;46541;49.894;10.886;2022-09-29T12:25:15;3.58;;;2.08;;
60700;SDS011;46541;49.894;10.886;2022-09-29T12:27:45;7.55;;;2.10;;
60700;SDS011;46541;49.894;10.886;2022-09-29T12:32:43;5.25;;;2.05;;
60700;SDS011;46541;49.894;10.886;2022-09-29T12:35:17;4.75;;;2.38;;
60700;SDS011;46541;49.894;10.886;2022-09-29T12:37:53;4.25;;;1.40;;
60700;SDS011;46541;49.894;10.886;2022-09-29T12:40:31;3.85;;;2.30;;
60700;SDS011;46541;49.894;10.886;2022-09-29T12:43:06;3.72;;;1.92;;
60700;SDS011;46541;49.894;10.886;2022-09-29T12:49:04;4.80;;;1.77;;
60700;SDS011;46541;49.894;10.886;2022-09-29T12:51:50;3.83;;;1.80;;
60700;SDS011;46541;49.894;10.886;2022-09-29T12:57:01;4.28;;;1.50;;
60700;SDS011;46541;49.894;10.886;2022-09-29T13:02:16;3.22;;;1.48;;
60700;SDS011;46541;49.894;10.886;2022-09-29T13:10:12;2.20;;;1.40;;
60700;SDS011;46541;49.894;10.886;2022-09-29T13:29:53;8.25;;;2.35;;
60700;SDS011;46541;49.894;10.886;2022-09-29T13:32:27;2.50;;;1.65;;
60700;SDS011;46541;49.894;10.886;2022-09-29T13:34:56;1.80;;;1.27;;
60700;SDS011;46541;49.894;10.886;2022-09-29T13:37:26;4.85;;;1.73;;
60700;SDS011;46541;49.894;10.886;2022-09-29T13:40:08;5.65;;;1.90;;
60700;SDS011;46541;49.894;10.886;2022-09-29T13:42:45;4.43;;;1.73;;
60700;SDS011;46541;49.894;10.886;2022-09-29T13:55:54;5.75;;;2.03;;
60700;SDS011;46541;49.894;10.886;2022-09-29T14:01:09;4.60;;;1.40;;
60700;SDS011;46541;49.894;10.886;2022-09-29T14:03:38;6.82;;;1.83;;
60700;SDS011;46541;49.894;10.886;2022-09-29T14:11:42;2.03;;;1.67;;
60700;SDS011;46541;49.894;10.886;2022-09-29T14:16:51;5.93;;;1.80;;
60700;SDS011;46541;49.894;10.886;2022-09-29T14:22:02;3.85;;;1.42;;
60700;SDS011;46541;49.894;10.886;2022-09-29T14:29:57;7.32;;;2.28;;
60700;SDS011;46541;49.894;10.886;2022-09-29T14:35:33;4.85;;;2.03;;
60700;SDS011;46541;49.894;10.886;2022-09-29T14:38:07;7.10;;;2.47;;
60700;SDS011;46541;49.894;10.886;2022-09-29T14:40:35;5.13;;;1.73;;
60700;SDS011;46541;49.894;10.886;2022-09-29T14:43:15;5.70;;;2.00;;
60700;SDS011;46541;49.894;10.886;2022-09-29T14:52:38;5.50;;;2.35;;
60700;SDS011;46541;49.894;10.886;2022-09-29T15:03:47;5.32;;;2.15;;
60700;SDS011;46541;49.894;10.886;2022-09-29T15:06:16;4.72;;;2.40;;
60700;SDS011;46541;49.894;10.886;2022-09-29T15:08:55;3.33;;;2.40;;
60700;SDS011;46541;49.894;10.886;2022-09-29T15:11:25;6.07;;;2.63;;
60700;SDS011;46541;49.894;10.886;2022-09-29T15:14:01;6.57;;;3.10;;
60700;SDS011;46541;49.894;10.886;2022-09-29T15:19:42;4.90;;;3.20;;
60700;SDS011;46541;49.894;10.886;2022-09-29T15:22:40;7.03;;;3.10;;
60700;SDS011;46541;49.894;10.886;2022-09-29T15:28:20;6.07;;;2.55;;
60700;SDS011;46541;49.894;10.886;2022-09-29T15:30:51;9.25;;;5.38;;
60700;SDS011;46541;49.894;10.886;2022-09-29T15:33:21;8.93;;;3.60;;
60700;SDS011;46541;49.894;10.886;2022-09-29T15:35:56;4.82;;;3.00;;
60700;SDS011;46541;49.894;10.886;2022-09-29T15:40:54;6.07;;;3.75;;
60700;SDS011;46541;49.894;10.886;2022-09-29T15:43:25;3.10;;;1.65;;
60700;SDS011;46541;49.894;10.886;2022-09-29T15:48:28;7.28;;;2.15;;
60700;SDS011;46541;49.894;10.886;2022-09-29T15:50:56;3.40;;;1.80;;
60700;SDS011;46541;49.894;10.886;2022-09-29T15:53:24;3.08;;;1.85;;
60700;SDS011;46541;49.894;10.886;2022-09-29T15:55:53;6.03;;;2.75;;
60700;SDS011;46541;49.894;10.886;2022-09-29T16:01:03;3.85;;;1.58;;
60700;SDS011;46541;49.894;10.886;2022-09-29T16:08:57;11.57;;;3.10;;
60700;SDS011;46541;49.894;10.886;2022-09-29T16:11:30;4.65;;;2.70;;
60700;SDS011;46541;49.894;10.886;2022-09-29T16:14:12;5.03;;;2.08;;
60700;SDS011;46541;49.894;10.886;2022-09-29T16:16:48;4.93;;;2.22;;
60700;SDS011;46541;49.894;10.886;2022-09-29T16:19:27;5.22;;;2.00;;
60700;SDS011;46541;49.894;10.886;2022-09-29T16:21:57;4.43;;;2.08;;
60700;SDS011;46541;49.894;10.886;2022-09-29T16:24:28;2.72;;;2.10;;
60700;SDS011;46541;49.894;10.886;2022-09-29T16:33:00;5.13;;;1.92;;
60700;SDS011;46541;49.894;10.886;2022-09-29T16:38:09;5.20;;;2.30;;
60700;SDS011;46541;49.894;10.886;2022-09-29T16:40:43;5.68;;;2.67;;
60700;SDS011;46541;49.894;10.886;2022-09-29T16:43:16;4.57;;;2.35;;
60700;SDS011;46541;49.894;10.886;2022-09-29T16:45:48;3.85;;;1.90;;
60700;SDS011;46541;49.894;10.886;2022-09-29T16:48:17;6.10;;;2.13;;
60700;SDS011;46541;49.894;10.886;2022-09-29T16:50:45;5.70;;;2.42;;
60700;SDS011;46541;49.894;10.886;2022-09-29T16:53:21;6.63;;;2.72;;
60700;SDS011;46541;49.894;10.886;2022-09-29T16:55:59;6.05;;;3.13;;
60700;SDS011;46541;49.894;10.886;2022-09-29T17:00:55;9.60;;;3.10;;
60700;SDS011;46541;49.894;10.886;2022-09-29T17:03:22;4.20;;;2.45;;
60700;SDS011;46541;49.894;10.886;2022-09-29T17:05:49;3.88;;;2.45;;
60700;SDS011;46541;49.894;10.886;2022-09-29T17:08:18;5.30;;;3.00;;
60700;SDS011;46541;49.894;10.886;2022-09-29T17:10:48;6.70;;;3.00;;
60700;SDS011;46541;49.894;10.886;2022-09-29T17:13:17;6.95;;;2.53;;
60700;SDS011;46541;49.894;10.886;2022-09-29T17:15:45;6.85;;;3.47;;
60700;SDS011;46541;49.894;10.886;2022-09-29T17:18:17;11.98;;;6.53;;
60700;SDS011;46541;49.894;10.886;2022-09-29T17:20:45;17.27;;;10.10;;
60700;SDS011;46541;49.894;10.886;2022-09-29T17:23:11;7.05;;;4.15;;
60700;SDS011;46541;49.894;10.886;2022-09-29T17:25:39;9.63;;;3.85;;
60700;SDS011;46541;49.894;10.886;2022-09-29T17:28:15;5.80;;;3.30;;
60700;SDS011;46541;49.894;10.886;2022-09-29T17:30:45;8.45;;;3.80;;
60700;SDS011;46541;49.894;10.886;2022-09-29T17:33:14;6.88;;;3.58;;
60700;SDS011;46541;49.894;10.886;2022-09-29T17:35:48;18.88;;;4.68;;
60700;SDS011;46541;49.894;10.886;2022-09-29T17:38:21;6.18;;;3.75;;
60700;SDS011;46541;49.894;10.886;2022-09-29T17:43:21;13.65;;;3.83;;
60700;SDS011;46541;49.894;10.886;2022-09-29T17:45:50;9.20;;;4.90;;
60700;SDS011;46541;49.894;10.886;2022-09-29T17:48:19;8.50;;;4.85;;
60700;SDS011;46541;49.894;10.886;2022-09-29T17:50:49;9.18;;;4.28;;
60700;SDS011;46541;49.894;10.886;2022-09-29T17:53:19;9.57;;;6.70;;
60700;SDS011;46541;49.894;10.886;2022-09-29T17:55:47;8.35;;;4.68;;
60700;SDS011;46541;49.894;10.886;2022-09-29T17:58:16;8.63;;;3.95;;
60700;SDS011;46541;49.894;10.886;2022-09-29T18:00:44;8.15;;;4.93;;
60700;SDS011;46541;49.894;10.886;2022-09-29T18:03:15;9.63;;;5.70;;
60700;SDS011;46541;49.894;10.886;2022-09-29T18:05:44;8.52;;;4.80;;
60700;SDS011;46541;49.894;10.886;2022-09-29T18:08:15;10.27;;;4.85;;
60700;SDS011;46541;49.894;10.886;2022-09-29T18:10:44;13.48;;;7.43;;
60700;SDS011;46541;49.894;10.886;2022-09-29T18:13:15;10.30;;;6.35;;
60700;SDS011;46541;49.894;10.886;2022-09-29T18:15:42;12.20;;;6.45;;
60700;SDS011;46541;49.894;10.886;2022-09-29T18:18:09;11.70;;;7.07;;
60700;SDS011;46541;49.894;10.886;2022-09-29T18:20:38;13.05;;;7.90;;
60700;SDS011;46541;49.894;10.886;2022-09-29T18:23:05;15.20;;;8.35;;
60700;SDS011;46541;49.894;10.886;2022-09-29T18:25:32;14.20;;;8.73;;
60700;SDS011;46541;49.894;10.886;2022-09-29T18:28:00;13.93;;;7.78;;
60700;SDS011;46541;49.894;10.886;2022-09-29T18:32:56;8.65;;;5.47;;
60700;SDS011;46541;49.894;10.886;2022-09-29T18:35:29;10.10;;;6.00;;
60700;SDS011;46541;49.894;10.886;2022-09-29T18:37:59;8.68;;;5.03;;
60700;SDS011;46541;49.894;10.886;2022-09-29T18:40:27;10.25;;;5.47;;
60700;SDS011;46541;49.894;10.886;2022-09-29T18:42:55;7.68;;;4.50;;
60700;SDS011;46541;49.894;10.886;2022-09-29T18:45:28;9.30;;;3.63;;
60700;SDS011;46541;49.894;10.886;2022-09-29T18:47:57;6.05;;;3.60;;
60700;SDS011;46541;49.894;10.886;2022-09-29T18:50:30;8.18;;;5.20;;
60700;SDS011;46541;49.894;10.886;2022-09-29T18:52:58;5.75;;;3.88;;